Wetterdaten: aktuell Samstag, 05.09.2026 20:40
Datum Zeit Temp. A. Feuchte A. Luftdruck Regen Wind Richtung Richtung Taupunkt Windchill
05.09.2026 20:40 20,9 °C 30 % 1017,1 hPa 0,0 l/m² 5,7 km/h (1 Bft) NW±22.5° 310 ° 2,7 °C 20,9 °C
05.09.2026 20:38 20,9 °C 30 % 1017,1 hPa 0,0 l/m² 5,6 km/h (1 Bft) NW 325 ° 2,7 °C 20,9 °C
05.09.2026 20:36 21,0 °C 30 % 1017,1 hPa 0,0 l/m² 1,0 km/h (0 Bft) N-NW 340 ° 2,8 °C 21,0 °C
05.09.2026 20:34 21,0 °C 30 % 1017,1 hPa 0,0 l/m² 7,3 km/h (2 Bft) N-NW±22.5° 340 ° 2,8 °C 20,7 °C
05.09.2026 20:33 21,1 °C 30 % 1017,1 hPa 0,0 l/m² 7,3 km/h (2 Bft) N-NW±22.5° 340 ° 2,8 °C 20,8 °C
05.09.2026 20:31 21,1 °C 29 % 1017,1 hPa 0,0 l/m² 4,6 km/h (1 Bft) NW 315 ° 2,4 °C 21,1 °C
05.09.2026 20:29 21,1 °C 29 % 1017,1 hPa 0,0 l/m² 4,2 km/h (1 Bft) NW 305 ° 2,4 °C 21,1 °C
05.09.2026 20:27 21,3 °C 29 % 1017,1 hPa 0,0 l/m² 1,0 km/h (0 Bft) NW 305 ° 2,5 °C 21,3 °C
05.09.2026 20:25 21,3 °C 29 % 1017,1 hPa 0,0 l/m² 1,0 km/h (0 Bft) NW 305 ° 2,5 °C 21,3 °C
05.09.2026 20:23 21,3 °C 29 % 1017,1 hPa 0,0 l/m² 5,2 km/h (1 Bft) NW±22.5° 310 ° 2,5 °C 21,3 °C
05.09.2026 20:21 21,3 °C 29 % 1017,1 hPa 0,0 l/m² 8,1 km/h (2 Bft) NW±22.5° 320 ° 2,5 °C 20,7 °C
05.09.2026 20:19 21,4 °C 29 % 1016,1 hPa 0,0 l/m² 8,1 km/h (2 Bft) NW±22.5° 320 ° 2,6 °C 20,8 °C
05.09.2026 20:17 21,4 °C 29 % 1016,1 hPa 0,0 l/m² 9,1 km/h (2 Bft) NW±22.5° 320 ° 2,6 °C 20,5 °C
05.09.2026 20:15 21,4 °C 29 % 1016,1 hPa 0,0 l/m² 7,2 km/h (2 Bft) NW±22.5° 305 ° 2,6 °C 21,1 °C
05.09.2026 20:13 21,5 °C 28 % 1016,1 hPa 0,0 l/m² 2,1 km/h (1 Bft) N-NW±22.5° 330 ° 2,2 °C 21,5 °C
05.09.2026 20:11 21,6 °C 28 % 1016,0 hPa 0,0 l/m² 2,1 km/h (1 Bft) N-NW±22.5° 330 ° 2,3 °C 21,6 °C
05.09.2026 20:09 21,6 °C 28 % 1016,0 hPa 0,0 l/m² 6,8 km/h (2 Bft) NW±22.5° 320 ° 2,3 °C 21,5 °C
05.09.2026 20:07 21,7 °C 28 % 1016,0 hPa 0,0 l/m² 4,0 km/h (1 Bft) NW±22.5° 310 ° 2,4 °C 21,7 °C
05.09.2026 20:05 21,8 °C 28 % 1016,0 hPa 0,0 l/m² 4,0 km/h (1 Bft) NW±22.5° 310 ° 2,5 °C 21,8 °C
05.09.2026 20:02 21,8 °C 28 % 1016,0 hPa 0,0 l/m² 4,0 km/h (1 Bft) NW±22.5° 310 ° 2,5 °C 21,8 °C
05.09.2026 20:00 21,9 °C 27 % 1016,0 hPa 0,0 l/m² 7,8 km/h (2 Bft) W-NW±22.5° 300 ° 2,1 °C 21,4 °C
05.09.2026 19:58 21,9 °C 27 % 1016,0 hPa 0,0 l/m² 8,2 km/h (2 Bft) N-NW±45° 330 ° 2,1 °C 21,3 °C
05.09.2026 19:56 21,9 °C 27 % 1016,0 hPa 0,0 l/m² 8,2 km/h (2 Bft) N-NW±45° 330 ° 2,1 °C 21,3 °C
05.09.2026 19:54 22,0 °C 26 % 1016,0 hPa 0,0 l/m² 12,9 km/h (3 Bft) N-NW±22.5° 330 ° 1,6 °C 20,1 °C
05.09.2026 19:52 22,1 °C 26 % 1016,0 hPa 0,0 l/m² 3,0 km/h (1 Bft) NW±22.5° 305 ° 1,7 °C 22,1 °C
05.09.2026 19:51 22,1 °C 26 % 1016,0 hPa 0,0 l/m² 5,2 km/h (1 Bft) NW 315 ° 1,7 °C 22,1 °C
05.09.2026 19:49 22,1 °C 26 % 1016,0 hPa 0,0 l/m² 5,2 km/h (1 Bft) NW 315 ° 1,7 °C 22,1 °C
05.09.2026 19:47 22,2 °C 25 % 1016,0 hPa 0,0 l/m² 8,6 km/h (2 Bft) NW±22.5° 315 ° 1,2 °C 21,5 °C
05.09.2026 19:45 22,2 °C 25 % 1016,0 hPa 0,0 l/m² 5,2 km/h (1 Bft) N±45° 360 ° 1,2 °C 22,2 °C
05.09.2026 19:43 22,3 °C 25 % 1016,0 hPa 0,0 l/m² 5,2 km/h (1 Bft) N±45° 360 ° 1,3 °C 22,3 °C
05.09.2026 19:41 22,3 °C 25 % 1016,0 hPa 0,0 l/m² 5,5 km/h (1 Bft) NW 320 ° 1,3 °C 22,3 °C
05.09.2026 19:39 22,3 °C 25 % 1016,0 hPa 0,0 l/m² 12,4 km/h (3 Bft) NW±22.5° 315 ° 1,3 °C 20,6 °C
05.09.2026 19:37 22,4 °C 24 % 1016,0 hPa 0,0 l/m² 8,1 km/h (2 Bft) N-NW±45° 330 ° 0,8 °C 21,8 °C
05.09.2026 19:35 22,5 °C 24 % 1016,0 hPa 0,0 l/m² 8,1 km/h (2 Bft) N-NW±45° 330 ° 0,9 °C 21,9 °C
05.09.2026 19:33 22,5 °C 24 % 1016,0 hPa 0,0 l/m² 10,9 km/h (2 Bft) NW±45° 320 ° 0,9 °C 21,2 °C
05.09.2026 19:31 22,5 °C 23 % 1016,0 hPa 0,0 l/m² 12,6 km/h (3 Bft) NW±22.5° 320 ° 0,3 °C 20,8 °C
05.09.2026 19:29 22,6 °C 24 % 1016,0 hPa 0,0 l/m² 6,8 km/h (2 Bft) NW±22.5° 315 ° 1,0 °C 22,5 °C
05.09.2026 19:27 22,6 °C 24 % 1016,0 hPa 0,0 l/m² 6,8 km/h (2 Bft) NW±22.5° 315 ° 1,0 °C 22,5 °C
05.09.2026 19:24 22,7 °C 23 % 1016,0 hPa 0,0 l/m² 4,4 km/h (1 Bft) NW 325 ° 0,5 °C 22,7 °C
05.09.2026 19:22 22,7 °C 22 % 1016,0 hPa 0,0 l/m² 11,4 km/h (2 Bft) NW±45° 315 ° -0,1 °C 21,3 °C
05.09.2026 19:20 22,8 °C 22 % 1016,0 hPa 0,0 l/m² 11,4 km/h (2 Bft) NW±45° 315 ° -0,0 °C 21,4 °C
_ Min-Zeit 05:03 14:26 00:09 - 00:02 - - 18:34 09:42
Minimum _ 18,3 °C 20 % 1009,1 hPa - 0,0 km/h (0 Bft) - - -0,7 °C 18,3 °C
_ Max-Zeit 15:43 08:06 20:38 00:01 16:09 - - 08:06 15:48
Maximum _ 24,8 °C 70 % 1017,1 hPa 0,0 l/m² 23,0 km/h
NW (4 Bft)
- - 12,9 °C 24,8 °C
Durchschnitt _ 21,0 °C 45 % 1013,2 hPa #0,0 l/m² 4,7 km/h (1 Bft) NW - 6,9 °C 20,6 °C